createdAt,value
2023-01-22T00:01:16.317Z,98841.97
2023-01-22T00:03:46.688Z,98838.44
2023-01-22T00:06:16.059Z,98842.63
2023-01-22T00:08:46.766Z,98845.31
2023-01-22T00:11:16.036Z,98845.88
2023-01-22T00:13:44.704Z,98851.03
2023-01-22T00:16:13.990Z,98849.44
2023-01-22T00:18:42.275Z,98854.38
2023-01-22T00:21:11.420Z,98855.31
2023-01-22T00:23:39.789Z,98864.28
2023-01-22T00:26:12.745Z,98868.34
2023-01-22T00:28:45.210Z,98869.63
2023-01-22T00:31:14.308Z,98866.03
2023-01-22T00:33:42.750Z,98868.19
2023-01-22T00:36:13.397Z,98871.59
2023-01-22T00:38:42.121Z,98864.34
2023-01-22T00:41:12.123Z,98865.81
2023-01-22T00:43:40.895Z,98868.50
2023-01-22T00:46:10.645Z,98866.09
2023-01-22T00:48:39.077Z,98869.84
2023-01-22T00:51:09.226Z,98863.22
2023-01-22T00:53:41.214Z,98861.34
2023-01-22T00:56:11.411Z,98858.22
2023-01-22T00:58:40.720Z,98859.50
2023-01-22T01:01:09.110Z,98862.88
2023-01-22T01:03:37.822Z,98862.88
2023-01-22T01:06:08.772Z,98860.78
2023-01-22T01:08:38.484Z,98854.50
2023-01-22T01:11:09.554Z,98856.38
2023-01-22T01:13:42.949Z,98859.75
2023-01-22T01:16:14.706Z,98860.63
2023-01-22T01:18:43.188Z,98852.25
2023-01-22T01:21:12.206Z,98863.16
2023-01-22T01:23:40.604Z,98863.47
2023-01-22T01:26:10.642Z,98858.78
2023-01-22T01:28:42.513Z,98863.72
2023-01-22T01:31:14.062Z,98871.72
2023-01-22T01:33:42.606Z,98867.97
2023-01-22T01:36:13.312Z,98868.53
2023-01-22T01:38:41.617Z,98879.84
2023-01-22T01:41:09.771Z,98885.94
2023-01-22T01:43:38.067Z,98889.91
2023-01-22T01:46:18.256Z,98894.28
2023-01-22T01:48:49.156Z,98909.78
2023-01-22T01:51:21.703Z,98912.78
2023-01-22T01:53:52.063Z,98910.31
2023-01-22T01:56:24.477Z,98898.56
2023-01-22T01:58:58.512Z,98916.28
2023-01-22T02:01:29.036Z,98909.03
2023-01-22T02:03:57.290Z,98913.47
2023-01-22T02:06:25.367Z,98913.19
2023-01-22T02:08:55.155Z,98912.03
2023-01-22T02:11:24.095Z,98910.75
2023-01-22T02:13:57.319Z,98913.63
2023-01-22T02:16:25.489Z,98921.38
2023-01-22T02:18:54.950Z,98914.66
2023-01-22T02:21:34.024Z,98908.88
2023-01-22T02:24:02.683Z,98912.63
2023-01-22T02:26:30.847Z,98897.84
2023-01-22T02:28:59.185Z,98898.19
2023-01-22T02:31:30.342Z,98894.28
2023-01-22T02:34:01.950Z,98901.69
2023-01-22T02:36:35.745Z,98901.75
2023-01-22T02:39:04.227Z,98899.78
2023-01-22T02:41:33.168Z,98902.72
2023-01-22T02:44:01.580Z,98897.69
2023-01-22T02:46:30.541Z,98898.69
2023-01-22T02:48:58.730Z,98902.63
2023-01-22T02:51:26.925Z,98903.91
2023-01-22T02:53:56.523Z,98906.13
2023-01-22T02:56:24.799Z,98894.44
2023-01-22T02:58:53.229Z,98895.25
2023-01-22T03:01:24.006Z,98889.56
2023-01-22T03:03:55.939Z,98900.00
2023-01-22T03:06:26.869Z,98901.25
2023-01-22T03:08:57.872Z,98893.97
2023-01-22T03:11:27.661Z,98903.63
2023-01-22T03:14:13.754Z,98912.34
2023-01-22T03:17:00.448Z,98911.41
2023-01-22T03:19:46.942Z,98918.84
2023-01-22T03:22:20.102Z,98918.84
2023-01-22T03:24:52.781Z,98921.81
2023-01-22T03:27:26.055Z,98925.56
2023-01-22T03:29:54.966Z,98913.78
2023-01-22T03:32:24.098Z,98924.16
2023-01-22T03:34:53.887Z,98919.97
2023-01-22T03:37:23.682Z,98918.22
2023-01-22T03:39:57.424Z,98917.06
2023-01-22T03:42:36.388Z,98928.34
2023-01-22T03:45:04.724Z,98921.84
2023-01-22T03:47:35.175Z,98917.41
2023-01-22T03:50:09.808Z,98926.47
2023-01-22T03:52:38.003Z,98924.88
2023-01-22T03:55:08.403Z,98930.09
2023-01-22T03:57:36.739Z,98929.13
2023-01-22T04:00:07.859Z,98929.50
2023-01-22T04:02:40.635Z,98932.97
2023-01-22T04:05:19.092Z,98930.38
2023-01-22T04:07:47.472Z,98924.03
2023-01-22T04:10:19.014Z,98932.53
2023-01-22T04:12:47.595Z,98928.91
2023-01-22T04:15:18.596Z,98934.66
2023-01-22T04:17:47.587Z,98936.56
2023-01-22T04:20:35.900Z,98936.75
2023-01-22T04:23:19.474Z,98939.66
2023-01-22T04:25:49.711Z,98931.41
2023-01-22T04:28:18.423Z,98939.16
2023-01-22T04:30:53.188Z,98926.94
2023-01-22T04:33:32.397Z,98926.78
2023-01-22T04:36:09.674Z,98934.72
2023-01-22T04:38:38.509Z,98928.19
2023-01-22T04:41:08.081Z,98929.19
2023-01-22T04:43:36.257Z,98930.88
2023-01-22T04:46:04.743Z,98935.47
2023-01-22T04:48:34.429Z,98929.63
2023-01-22T04:51:02.687Z,98926.06
2023-01-22T04:53:32.801Z,98932.34
2023-01-22T04:56:01.994Z,98932.41
2023-01-22T04:58:31.776Z,98927.09
2023-01-22T05:01:01.386Z,98920.13
2023-01-22T05:03:31.277Z,98934.56
2023-01-22T05:06:04.858Z,98930.66
2023-01-22T05:08:35.571Z,98940.44
2023-01-22T05:11:04.814Z,98934.41
2023-01-22T05:13:41.910Z,98937.81
2023-01-22T05:16:10.337Z,98934.56
2023-01-22T05:18:38.530Z,98950.50
2023-01-22T05:21:06.985Z,98946.59
2023-01-22T05:23:37.263Z,98942.59
2023-01-22T05:26:05.413Z,98949.19
2023-01-22T05:28:43.266Z,98945.69
2023-01-22T05:31:30.089Z,98942.09
2023-01-22T05:34:03.074Z,98952.03
2023-01-22T05:36:32.336Z,98953.59
2023-01-22T05:39:09.090Z,98963.81
2023-01-22T05:41:37.485Z,98964.41
2023-01-22T05:44:07.862Z,98958.66
2023-01-22T05:46:38.063Z,98967.16
2023-01-22T05:49:15.198Z,98972.97
2023-01-22T05:51:43.419Z,98986.53
2023-01-22T05:54:11.547Z,98988.78
2023-01-22T05:56:42.594Z,98990.84
2023-01-22T05:59:13.178Z,98990.78
2023-01-22T06:01:42.527Z,98990.44
2023-01-22T06:04:11.305Z,98984.00
2023-01-22T06:06:39.673Z,98989.84
2023-01-22T06:09:08.195Z,98996.50
2023-01-22T06:11:38.810Z,98992.16
2023-01-22T06:14:07.387Z,98996.72
2023-01-22T06:16:36.806Z,98991.06
2023-01-22T06:19:27.993Z,98996.59
2023-01-22T06:21:56.653Z,98995.63
2023-01-22T06:24:43.097Z,98983.16
2023-01-22T06:27:12.290Z,98984.47
2023-01-22T06:29:50.249Z,98987.03
2023-01-22T06:32:19.864Z,98987.72
2023-01-22T06:34:47.978Z,98989.09
2023-01-22T06:37:17.339Z,98988.59
2023-01-22T06:39:45.492Z,98986.94
2023-01-22T06:42:26.838Z,98995.06
2023-01-22T06:44:55.106Z,99004.16
2023-01-22T06:47:27.871Z,98999.06
2023-01-22T06:49:56.521Z,98999.50
2023-01-22T06:52:24.696Z,99008.72
2023-01-22T06:54:52.887Z,99004.03
2023-01-22T06:57:21.149Z,99007.25
2023-01-22T06:59:49.259Z,99017.84
2023-01-22T07:02:18.254Z,99017.19
2023-01-22T07:04:47.953Z,99013.16
2023-01-22T07:07:16.313Z,99004.81
2023-01-22T07:09:44.411Z,99008.56
2023-01-22T07:12:12.537Z,99020.28
2023-01-22T07:14:40.671Z,99019.16
2023-01-22T07:17:08.867Z,99029.66
2023-01-22T07:19:37.058Z,99035.38
2023-01-22T07:22:06.530Z,99040.44
2023-01-22T07:24:34.868Z,99044.25
2023-01-22T07:27:03.461Z,99050.56
2023-01-22T07:29:31.510Z,99054.38
2023-01-22T07:31:59.820Z,99050.81
2023-01-22T07:34:27.967Z,99048.28
2023-01-22T07:36:56.003Z,99058.13
2023-01-22T07:39:25.620Z,99055.81
2023-01-22T07:41:54.074Z,99050.00
2023-01-22T07:44:22.330Z,99058.28
2023-01-22T07:46:50.590Z,99052.28
2023-01-22T07:49:18.804Z,99057.34
2023-01-22T07:51:46.911Z,99051.97
2023-01-22T07:54:17.497Z,99047.22
2023-01-22T07:56:47.893Z,99053.00
2023-01-22T07:59:15.997Z,99050.53
2023-01-22T08:01:44.212Z,99050.66
2023-01-22T08:04:12.250Z,99048.84
2023-01-22T08:06:40.371Z,99033.00
2023-01-22T08:09:08.437Z,99038.91
2023-01-22T08:11:36.573Z,99054.44
2023-01-22T08:14:05.990Z,99052.78
2023-01-22T08:16:35.899Z,99053.13
2023-01-22T08:19:04.241Z,99049.56
2023-01-22T08:21:33.440Z,99052.59
2023-01-22T08:24:01.558Z,99052.06
2023-01-22T08:26:30.153Z,99055.84
2023-01-22T08:28:58.194Z,99058.44
2023-01-22T08:31:28.793Z,99056.72
2023-01-22T08:33:59.743Z,99064.38
2023-01-22T08:36:28.248Z,99068.25
2023-01-22T08:38:57.061Z,99071.69
2023-01-22T08:41:25.913Z,99066.03
2023-01-22T08:43:54.082Z,99077.28
2023-01-22T08:46:22.236Z,99073.72
2023-01-22T08:48:52.138Z,99077.50
2023-01-22T08:51:22.751Z,99078.91
2023-01-22T08:53:51.309Z,99076.88
2023-01-22T08:56:19.354Z,99075.34
2023-01-22T08:58:50.076Z,99077.09
2023-01-22T09:01:19.622Z,99080.81
2023-01-22T09:03:48.761Z,99084.97
2023-01-22T09:06:18.588Z,99076.50
2023-01-22T09:08:46.689Z,99072.53
2023-01-22T09:11:14.821Z,99073.28
2023-01-22T09:13:42.974Z,99072.84
2023-01-22T09:16:11.853Z,99086.19
2023-01-22T09:18:40.607Z,99081.44
2023-01-22T09:21:09.422Z,99084.44
2023-01-22T09:23:38.885Z,99084.56
2023-01-22T09:26:07.154Z,99083.13
2023-01-22T09:28:36.222Z,99081.81
2023-01-22T09:31:04.688Z,99079.94
2023-01-22T09:33:32.919Z,99076.22
2023-01-22T09:36:08.973Z,99078.97
2023-01-22T09:38:38.738Z,99069.81
2023-01-22T09:41:16.252Z,99066.66
2023-01-22T09:43:50.905Z,99080.66
2023-01-22T09:46:25.700Z,99066.78
2023-01-22T09:48:59.095Z,99084.13
2023-01-22T09:51:27.612Z,99071.41
2023-01-22T09:54:00.696Z,99070.81
2023-01-22T09:56:36.225Z,99063.22
2023-01-22T09:59:07.490Z,99060.94
2023-01-22T10:01:37.077Z,99069.31
2023-01-22T10:04:15.882Z,99058.84
2023-01-22T10:06:46.020Z,99073.69
2023-01-22T10:09:20.509Z,99068.94
2023-01-22T10:11:54.124Z,99072.19
2023-01-22T10:14:25.292Z,99073.63
2023-01-22T10:16:53.535Z,99066.53
2023-01-22T10:19:25.812Z,99059.44
2023-01-22T10:22:00.128Z,99070.72
2023-01-22T10:24:30.305Z,99069.94
2023-01-22T10:26:59.749Z,99073.88
2023-01-22T10:29:33.093Z,99072.94
2023-01-22T10:32:03.297Z,99070.03
2023-01-22T10:34:34.484Z,99070.78
2023-01-22T10:37:05.058Z,99074.13
2023-01-22T10:39:42.346Z,99075.06
2023-01-22T10:42:17.571Z,99078.63
2023-01-22T10:44:45.974Z,99071.97
2023-01-22T10:47:20.602Z,99075.06
2023-01-22T10:49:49.610Z,99079.22
2023-01-22T10:52:24.694Z,99075.50
2023-01-22T10:54:58.382Z,99071.84
2023-01-22T10:57:31.571Z,99077.78
2023-01-22T11:00:07.334Z,99077.28
2023-01-22T11:02:36.818Z,99079.34
2023-01-22T11:05:15.523Z,99080.94
2023-01-22T11:07:45.344Z,99080.41
2023-01-22T11:10:23.671Z,99077.97
2023-01-22T11:12:57.536Z,99081.19
2023-01-22T11:15:34.451Z,99068.72
2023-01-22T11:18:04.318Z,99071.06
2023-01-22T11:20:39.424Z,99070.44
2023-01-22T11:23:26.224Z,99067.97
2023-01-22T11:26:01.880Z,99072.13
2023-01-22T11:28:41.837Z,99074.53
2023-01-22T11:31:24.336Z,99070.63
2023-01-22T11:34:13.193Z,99074.69
2023-01-22T11:36:49.063Z,99080.53
2023-01-22T11:39:28.911Z,99070.56
2023-01-22T11:42:06.853Z,99066.88
2023-01-22T11:44:51.051Z,99065.22
2023-01-22T11:47:36.957Z,99070.88
2023-01-22T11:50:24.555Z,99070.16
2023-01-22T11:53:01.152Z,99073.09
2023-01-22T11:55:52.355Z,99076.03
2023-01-22T11:58:32.601Z,99071.09
2023-01-22T12:01:16.113Z,99080.03
2023-01-22T12:04:19.842Z,99081.78
2023-01-22T12:07:09.017Z,99080.88
2023-01-22T12:09:44.245Z,99070.91
2023-01-22T12:12:29.314Z,99075.00
2023-01-22T12:15:15.856Z,99084.84
2023-01-22T12:17:55.583Z,99084.50
2023-01-22T12:20:43.809Z,99081.88
2023-01-22T12:23:17.740Z,99084.84
2023-01-22T12:25:53.173Z,99078.38
2023-01-22T12:28:28.138Z,99079.06
2023-01-22T12:31:02.176Z,99071.25
2023-01-22T12:33:34.447Z,99080.13
2023-01-22T12:36:05.640Z,99078.72
2023-01-22T12:38:42.750Z,99085.63
2023-01-22T12:41:28.677Z,99094.19
2023-01-22T12:43:58.277Z,99094.66
2023-01-22T12:46:35.607Z,99102.47
2023-01-22T12:49:07.626Z,99100.94
2023-01-22T12:51:38.925Z,99096.53
2023-01-22T12:54:18.563Z,99103.63
2023-01-22T12:56:47.289Z,99102.00
2023-01-22T12:59:43.845Z,99108.31
2023-01-22T13:02:38.015Z,99111.75
2023-01-22T13:05:22.176Z,99118.22
2023-01-22T13:08:02.030Z,99113.69
2023-01-22T13:10:32.017Z,99116.34
2023-01-22T13:13:04.427Z,99117.75
2023-01-22T13:15:35.850Z,99127.50
2023-01-22T13:18:08.353Z,99127.78
2023-01-22T13:20:39.199Z,99117.56
2023-01-22T13:23:08.361Z,99133.03
2023-01-22T13:25:36.452Z,99147.06
2023-01-22T13:28:04.829Z,99140.38
2023-01-22T13:30:33.421Z,99144.78
2023-01-22T13:33:08.380Z,99141.59
2023-01-22T13:35:37.668Z,99140.16
2023-01-22T13:38:05.761Z,99151.09
2023-01-22T13:40:46.288Z,99153.28
2023-01-22T13:43:21.103Z,99152.59
2023-01-22T13:45:50.307Z,99147.19
2023-01-22T13:48:22.252Z,99149.84
2023-01-22T13:50:56.157Z,99149.38
2023-01-22T13:53:29.601Z,99142.59
2023-01-22T13:55:58.488Z,99137.84
2023-01-22T13:58:48.024Z,99137.31
2023-01-22T14:01:29.287Z,99146.66
2023-01-22T14:04:03.437Z,99149.91
2023-01-22T14:06:43.090Z,99152.34
2023-01-22T14:09:11.223Z,99156.91
2023-01-22T14:11:40.279Z,99157.72
2023-01-22T14:14:17.078Z,99159.53
2023-01-22T14:16:45.387Z,99160.16
2023-01-22T14:19:15.220Z,99164.09
2023-01-22T14:21:43.580Z,99163.44
2023-01-22T14:24:11.801Z,99173.19
2023-01-22T14:26:39.982Z,99176.91
2023-01-22T14:29:09.465Z,99189.66
2023-01-22T14:31:37.648Z,99189.75
2023-01-22T14:34:05.759Z,99180.16
2023-01-22T14:36:35.438Z,99191.19
2023-01-22T14:39:05.809Z,99205.44
2023-01-22T14:41:34.895Z,99201.53
2023-01-22T14:44:03.886Z,99205.09
2023-01-22T14:46:37.896Z,99205.81
2023-01-22T14:49:06.812Z,99214.91
2023-01-22T14:51:36.300Z,99209.81
2023-01-22T14:54:04.423Z,99209.06
2023-01-22T14:56:32.556Z,99205.16
2023-01-22T14:59:00.773Z,99206.75
2023-01-22T15:01:29.174Z,99215.03
2023-01-22T15:03:57.316Z,99214.44
2023-01-22T15:06:25.768Z,99220.72
2023-01-22T15:08:55.374Z,99216.50
2023-01-22T15:22:27.229Z,99232.91
2023-01-22T15:24:55.391Z,99236.06
2023-01-22T15:27:23.473Z,99241.03
2023-01-22T15:29:51.582Z,99239.16
2023-01-22T15:32:19.894Z,99237.25
2023-01-22T15:34:47.967Z,99248.53
2023-01-22T15:37:16.107Z,99241.88
2023-01-22T15:39:45.566Z,99255.91
2023-01-22T15:42:13.710Z,99243.03
2023-01-22T15:44:41.926Z,99255.13
2023-01-22T15:47:10.905Z,99256.63
2023-01-22T15:49:39.129Z,99257.47
2023-01-22T15:52:07.346Z,99266.88
2023-01-22T15:54:35.406Z,99277.56
2023-01-22T15:57:05.120Z,99275.75
2023-01-22T15:59:33.325Z,99285.97
2023-01-22T16:02:01.569Z,99287.72
2023-01-22T16:04:29.709Z,99283.38
2023-01-22T16:06:57.948Z,99285.09
2023-01-22T16:09:26.032Z,99286.53
2023-01-22T16:11:54.234Z,99293.94
2023-01-22T16:14:23.705Z,99290.78
2023-01-22T16:16:51.980Z,99292.88
2023-01-22T16:19:20.114Z,99292.25
2023-01-22T16:21:48.329Z,99287.28
2023-01-22T16:24:16.453Z,99295.06
2023-01-22T16:26:44.544Z,99290.81
2023-01-22T16:29:12.962Z,99287.47
2023-01-22T16:31:42.620Z,99297.53
2023-01-22T16:34:12.967Z,99297.13
2023-01-22T16:36:41.886Z,99290.97
2023-01-22T16:39:15.550Z,99298.88
2023-01-22T16:41:43.722Z,99297.56
2023-01-22T16:44:13.487Z,99298.41
2023-01-22T16:46:44.745Z,99310.00
2023-01-22T16:49:16.225Z,99311.19
2023-01-22T16:51:45.977Z,99313.09
2023-01-22T16:54:24.166Z,99317.44
2023-01-22T16:56:52.541Z,99322.03
2023-01-22T16:59:20.702Z,99323.84
2023-01-22T17:01:50.328Z,99326.72
2023-01-22T17:04:18.608Z,99323.94
2023-01-22T17:06:48.461Z,99326.00
2023-01-22T17:09:19.507Z,99333.00
2023-01-22T17:11:50.792Z,99342.38
2023-01-22T17:14:22.619Z,99341.16
2023-01-22T17:16:52.617Z,99336.09
2023-01-22T17:19:21.073Z,99335.38
2023-01-22T17:21:51.567Z,99352.34
2023-01-22T17:24:19.758Z,99353.00
2023-01-22T17:26:48.205Z,99363.06
2023-01-22T17:29:16.753Z,99367.41
2023-01-22T17:31:44.899Z,99366.28
2023-01-22T17:34:14.527Z,99383.09
2023-01-22T17:36:43.108Z,99381.41
2023-01-22T17:39:16.011Z,99375.50
2023-01-22T17:41:44.505Z,99396.63
2023-01-22T17:44:13.401Z,99389.94
2023-01-22T17:46:41.820Z,99392.75
2023-01-22T17:49:11.382Z,99392.50
2023-01-22T17:51:41.452Z,99393.22
2023-01-22T17:54:10.625Z,99392.34
2023-01-22T17:56:43.168Z,99401.75
2023-01-22T17:59:13.140Z,99400.63
2023-01-22T18:01:41.794Z,99396.28
2023-01-22T18:04:11.626Z,99408.19
2023-01-22T18:06:42.991Z,99409.53
2023-01-22T18:09:12.673Z,99413.91
2023-01-22T18:11:41.448Z,99418.84
2023-01-22T18:14:12.920Z,99419.19
2023-01-22T18:16:42.046Z,99428.13
2023-01-22T18:19:10.290Z,99424.56
2023-01-22T18:21:40.902Z,99422.78
2023-01-22T18:24:11.848Z,99429.78
2023-01-22T18:26:40.344Z,99440.22
2023-01-22T18:29:09.037Z,99434.31
2023-01-22T18:31:38.118Z,99438.13
2023-01-22T18:34:08.124Z,99438.13
2023-01-22T18:36:39.277Z,99439.09
2023-01-22T18:39:15.524Z,99447.25
2023-01-22T18:41:45.145Z,99443.34
2023-01-22T18:44:16.727Z,99447.00
2023-01-22T18:46:48.273Z,99451.34
2023-01-22T18:49:19.654Z,99448.53
2023-01-22T18:51:48.455Z,99448.97
2023-01-22T18:54:18.541Z,99448.84
2023-01-22T18:56:47.333Z,99453.59
2023-01-22T18:59:15.399Z,99448.47
2023-01-22T19:01:50.131Z,99448.06
2023-01-22T19:04:21.881Z,99446.28
2023-01-22T19:06:57.167Z,99435.63
2023-01-22T19:09:28.030Z,99437.03
2023-01-22T19:11:56.324Z,99436.41
2023-01-22T19:14:24.424Z,99441.81
2023-01-22T19:16:53.911Z,99439.84
2023-01-22T19:19:25.606Z,99445.66
2023-01-22T19:21:58.065Z,99450.28
2023-01-22T19:24:28.596Z,99461.28
2023-01-22T19:26:58.123Z,99463.25
2023-01-22T19:29:27.119Z,99462.47
2023-01-22T19:31:57.105Z,99462.09
2023-01-22T19:34:25.917Z,99460.03
2023-01-22T19:36:55.612Z,99463.19
2023-01-22T19:39:25.380Z,99472.41
2023-01-22T19:41:55.316Z,99463.47
2023-01-22T19:44:23.853Z,99469.50
2023-01-22T19:46:52.096Z,99475.25
2023-01-22T19:49:20.411Z,99470.47
2023-01-22T19:51:48.815Z,99477.22
2023-01-22T19:54:17.729Z,99484.28
2023-01-22T19:56:46.051Z,99478.69
2023-01-22T19:59:18.161Z,99480.72
2023-01-22T20:01:48.598Z,99478.03
2023-01-22T20:04:20.780Z,99475.66
2023-01-22T20:06:50.992Z,99483.94
2023-01-22T20:09:21.871Z,99493.91
2023-01-22T20:11:53.555Z,99494.66
2023-01-22T20:14:24.146Z,99495.72
2023-01-22T20:16:52.852Z,99493.41
2023-01-22T20:19:20.918Z,99505.09
2023-01-22T20:21:49.254Z,99503.16
2023-01-22T20:24:17.763Z,99504.84
2023-01-22T20:26:45.956Z,99499.78
2023-01-22T20:29:14.311Z,99504.59
2023-01-22T20:31:44.475Z,99506.38
2023-01-22T20:34:12.775Z,99512.63
2023-01-22T20:36:40.877Z,99509.59
2023-01-22T20:39:08.947Z,99521.44
2023-01-22T20:41:36.996Z,99529.78
2023-01-22T20:44:05.406Z,99533.28
2023-01-22T20:46:34.725Z,99520.31
2023-01-22T20:49:04.653Z,99517.59
2023-01-22T20:51:32.960Z,99523.44
2023-01-22T20:54:01.580Z,99521.97
2023-01-22T20:56:32.860Z,99511.00
2023-01-22T20:59:02.842Z,99518.91
2023-01-22T21:01:31.512Z,99525.44
2023-01-22T21:04:00.909Z,99521.91
2023-01-22T21:06:32.577Z,99517.88
2023-01-22T21:09:02.106Z,99525.28
2023-01-22T21:11:32.099Z,99527.53
2023-01-22T21:14:01.994Z,99531.47
2023-01-22T21:16:32.847Z,99542.41
2023-01-22T21:19:02.257Z,99546.59
2023-01-22T21:21:33.199Z,99540.97
2023-01-22T21:24:02.207Z,99535.81
2023-01-22T21:26:33.302Z,99533.28
2023-01-22T21:29:03.322Z,99529.75
2023-01-22T21:31:32.263Z,99535.53
2023-01-22T21:34:03.633Z,99539.44
2023-01-22T21:36:37.233Z,99547.66
2023-01-22T21:39:07.066Z,99551.03
2023-01-22T21:41:35.561Z,99561.59
2023-01-22T21:44:21.112Z,99553.47
2023-01-22T21:46:49.638Z,99553.41
2023-01-22T21:49:20.047Z,99562.38
2023-01-22T21:51:50.973Z,99567.81
2023-01-22T21:54:20.971Z,99571.34
2023-01-22T21:56:49.438Z,99572.84
2023-01-22T21:59:17.975Z,99578.38
2023-01-22T22:01:46.905Z,99569.44
2023-01-22T22:04:16.197Z,99575.75
2023-01-22T22:06:44.287Z,99573.81
2023-01-22T22:09:15.587Z,99574.50
2023-01-22T22:11:44.097Z,99570.16
2023-01-22T22:14:15.780Z,99572.53
2023-01-22T22:16:44.294Z,99579.56
2023-01-22T22:19:13.137Z,99581.09
2023-01-22T22:21:41.479Z,99584.63
2023-01-22T22:24:10.796Z,99583.81
2023-01-22T22:26:41.451Z,99581.50
2023-01-22T22:29:10.427Z,99583.06
2023-01-22T22:31:39.315Z,99579.16
2023-01-22T22:34:07.987Z,99583.88
2023-01-22T22:36:36.148Z,99593.94
2023-01-22T22:39:06.538Z,99585.72
2023-01-22T22:41:38.583Z,99588.88
2023-01-22T22:44:10.373Z,99583.75
2023-01-22T22:46:40.238Z,99593.59
2023-01-22T22:49:12.661Z,99585.03
2023-01-22T22:51:43.505Z,99590.53
2023-01-22T22:54:16.595Z,99603.03
2023-01-22T22:56:45.725Z,99610.00
2023-01-22T22:59:16.170Z,99599.53
2023-01-22T23:01:44.258Z,99606.16
2023-01-22T23:04:13.827Z,99603.97
2023-01-22T23:06:44.643Z,99600.34
2023-01-22T23:09:14.287Z,99600.34
2023-01-22T23:11:42.927Z,99597.22
2023-01-22T23:14:11.579Z,99599.50
2023-01-22T23:16:43.023Z,99597.19
2023-01-22T23:19:15.462Z,99602.63
2023-01-22T23:21:44.061Z,99610.41
2023-01-22T23:24:13.974Z,99604.91
2023-01-22T23:26:44.651Z,99614.69
2023-01-22T23:29:15.467Z,99616.28
2023-01-22T23:31:45.436Z,99626.41
2023-01-22T23:34:15.447Z,99626.50
2023-01-22T23:36:45.679Z,99635.19
2023-01-22T23:39:16.481Z,99643.63
2023-01-22T23:41:45.412Z,99648.31
2023-01-22T23:44:13.741Z,99642.91
2023-01-22T23:46:42.451Z,99639.34
2023-01-22T23:49:12.079Z,99643.25
2023-01-22T23:51:42.246Z,99639.41
2023-01-22T23:54:10.622Z,99641.31
2023-01-22T23:56:38.863Z,99642.78
2023-01-22T23:59:07.119Z,99641.19
